Estación Meteorológica Peña el Pijo (Robertgarden) [ 12/11/18 03:01:03 CET ]

Fecha Hora Presion(HPa) Temp (°C) Humedad % Rocio (°C) Viento ( m/s) Direccion Lluvia 1Hora(mm) Lluvia 24H(mm) LLuvia Total(mm)
2018-Jun-30 01:01:49 1004.900 17.7 75 13.2         269.36
2018-Jun-30 02:01:47 1005.100 17.8 66 11.3         269.36
2018-Jun-30 03:01:57 1005.400 16.5 65 9.9         269.36
2018-Jun-30 04:01:51 1004.900 14.9 69 9.3         269.36
2018-Jun-30 05:03:38 1004.800 13.6 70 8.2         269.36
2018-Jun-30 06:01:55 1004.800 12.2 75 7.9         269.36
2018-Jun-30 07:01:37 1004.500 11.5 77 7.6         269.36
2018-Jun-30 08:01:40 1004.300 13.0 80 9.6         269.36
2018-Jun-30 09:01:40 1004.100 18.4 69 12.6         269.36
2018-Jun-30 10:01:57 1004.000 22.2 52 12.1         269.36
2018-Jun-30 11:01:33 1003.800 26.3 43 12.5         269.36
2018-Jun-30 12:01:51 1003.600 28.9 39 13.6         269.36
2018-Jun-30 13:01:23 1003.700 30.4 36 13.6         269.36
2018-Jun-30 14:01:16 1003.600 30.3 36 13.0         269.36
2018-Jun-30 15:01:26 1003.100 30.7 34 12.9         269.36
2018-Jun-30 16:01:39 1002.900 27.9 40 13.1         269.36
2018-Jun-30 17:01:49 1002.800 28.5 40 13.6         269.36
2018-Jun-30 18:01:43 1002.700 27.9 42 13.8         269.36
2018-Jun-30 19:01:46 1002.800 27.3 43 13.6         269.36
2018-Jun-30 20:01:46 1003.300 25.1 49 13.6         269.36
2018-Jun-30 21:02:07 1003.700 24.1 52 13.6         269.36
2018-Jun-30 22:01:46 1004.400 22.9 51 12.2         269.36
2018-Jun-30 23:01:38 1005.400 20.9 55 11.5         269.36

Temperatura Máxima:30°    Temperatura Mínima:11°
Presión Máxima:1005.400 Hpa    Presión Mínima:1002.700 Hpa


Volver